createdAt,value
2022-09-20T00:04:42.746Z,100314.00
2022-09-20T00:09:44.364Z,100308.31
2022-09-20T00:14:45.907Z,100310.75
2022-09-20T00:19:47.436Z,100309.63
2022-09-20T00:24:49.231Z,100316.56
2022-09-20T00:29:50.938Z,100318.63
2022-09-20T00:35:11.109Z,100312.56
2022-09-20T00:40:15.981Z,100307.34
2022-09-20T00:45:23.899Z,100292.19
2022-09-20T00:50:44.647Z,100300.03
2022-09-20T00:55:56.329Z,100311.22
2022-09-20T01:00:58.197Z,100313.41
2022-09-20T01:06:03.244Z,100312.97
2022-09-20T01:11:05.047Z,100314.63
2022-09-20T01:16:07.544Z,100313.28
2022-09-20T01:21:09.560Z,100305.00
2022-09-20T01:26:29.228Z,100305.63
2022-09-20T01:31:34.226Z,100310.13
2022-09-20T01:37:05.316Z,100303.53
2022-09-20T01:42:10.196Z,100304.47
2022-09-20T01:47:19.365Z,100305.28
2022-09-20T01:52:58.704Z,100306.56
2022-09-20T01:58:29.419Z,100307.81
2022-09-20T02:04:18.522Z,100304.19
2022-09-20T02:09:57.047Z,100305.47
2022-09-20T02:15:14.092Z,100308.25
2022-09-20T02:20:34.914Z,100314.25
2022-09-20T02:25:49.909Z,100309.00
2022-09-20T02:31:21.715Z,100315.28
2022-09-20T02:36:39.211Z,100311.69
2022-09-20T02:42:04.560Z,100318.34
2022-09-20T02:47:12.462Z,100328.41
2022-09-20T02:52:49.918Z,100335.41
2022-09-20T02:58:21.169Z,100326.63
2022-09-20T03:03:44.487Z,100333.91
2022-09-20T03:09:11.579Z,100340.38
2022-09-20T03:14:18.893Z,100344.81
2022-09-20T03:19:33.538Z,100345.34
2022-09-20T03:24:54.532Z,100339.28
2022-09-20T03:30:15.217Z,100352.06
2022-09-20T03:35:37.883Z,100346.84
2022-09-20T03:40:51.660Z,100356.13
2022-09-20T03:46:08.298Z,100345.97
2022-09-20T03:51:23.584Z,100349.22
2022-09-20T03:56:44.728Z,100348.44
2022-09-20T04:01:52.512Z,100351.72
2022-09-20T04:07:05.968Z,100360.47
2022-09-20T04:12:26.918Z,100363.19
2022-09-20T04:17:42.906Z,100355.75
2022-09-20T04:22:44.741Z,100366.88
2022-09-20T04:27:50.134Z,100376.75
2022-09-20T04:33:03.393Z,100374.69
2022-09-20T04:38:08.960Z,100379.13
2022-09-20T04:43:53.735Z,100381.97
2022-09-20T04:49:17.273Z,100381.34
2022-09-20T04:54:25.135Z,100384.72
2022-09-20T04:59:29.779Z,100395.44
2022-09-20T05:04:49.800Z,100393.06
2022-09-20T05:10:14.586Z,100402.56
2022-09-20T05:15:37.646Z,100416.78
2022-09-20T05:21:08.576Z,100408.34
2022-09-20T05:26:30.131Z,100418.06
2022-09-20T05:31:40.891Z,100414.53
2022-09-20T05:36:53.532Z,100421.97
2022-09-20T05:42:19.861Z,100427.41
2022-09-20T05:47:48.817Z,100429.09
2022-09-20T05:52:53.154Z,100436.75
2022-09-20T05:58:04.099Z,100445.72
2022-09-20T06:03:24.323Z,100442.81
2022-09-20T06:08:57.961Z,100446.28
2022-09-20T06:14:03.821Z,100452.69
2022-09-20T06:19:22.756Z,100453.97
2022-09-20T06:24:47.418Z,100456.34
2022-09-20T06:29:56.186Z,100459.69
2022-09-20T06:35:00.504Z,100455.75
2022-09-20T06:40:57.688Z,100466.63
2022-09-20T06:45:59.333Z,100461.38
2022-09-20T06:51:01.524Z,100461.38
2022-09-20T06:56:03.275Z,100470.00
2022-09-20T07:01:04.979Z,100473.59
2022-09-20T07:06:06.582Z,100473.59
2022-09-20T07:11:13.279Z,100480.00
2022-09-20T07:16:15.124Z,100486.31
2022-09-20T07:21:18.075Z,100480.31
2022-09-20T07:26:28.365Z,100494.00
2022-09-20T07:31:30.499Z,100492.19
2022-09-20T07:36:32.110Z,100499.81
2022-09-20T07:41:33.658Z,100508.53
2022-09-20T07:46:36.087Z,100516.28
2022-09-20T07:51:37.611Z,100520.63
2022-09-20T07:56:39.462Z,100524.97
2022-09-20T08:01:41.930Z,100527.13
2022-09-20T08:06:44.779Z,100525.16
2022-09-20T08:11:46.444Z,100532.22
2022-09-20T08:16:48.749Z,100534.19
2022-09-20T08:21:51.538Z,100536.53
2022-09-20T08:26:53.178Z,100536.16
2022-09-20T08:31:58.227Z,100538.19
2022-09-20T08:36:59.810Z,100555.31
2022-09-20T08:42:15.082Z,100549.41
2022-09-20T08:47:23.171Z,100547.81
2022-09-20T08:52:36.243Z,100556.03
2022-09-20T08:57:38.542Z,100553.72
2022-09-20T09:02:41.746Z,100561.00
2022-09-20T09:07:43.258Z,100561.56
2022-09-20T09:12:48.689Z,100570.56
2022-09-20T09:17:50.538Z,100564.88
2022-09-20T09:23:03.210Z,100565.56
2022-09-20T09:28:07.401Z,100562.47
2022-09-20T09:33:30.508Z,100569.31
2022-09-20T09:38:37.634Z,100567.88
2022-09-20T09:43:40.575Z,100570.06
2022-09-20T09:48:42.158Z,100580.81
2022-09-20T09:53:45.050Z,100579.84
2022-09-20T09:59:23.244Z,100578.31
2022-09-20T10:04:33.054Z,100581.19
2022-09-20T10:09:57.642Z,100577.53
2022-09-20T10:15:10.341Z,100578.88
2022-09-20T10:20:51.290Z,100575.56
2022-09-20T10:26:34.989Z,100573.88
2022-09-20T10:32:15.306Z,100586.03
2022-09-20T10:37:53.259Z,100584.69
2022-09-20T10:43:15.623Z,100591.47
2022-09-20T10:48:28.428Z,100587.94
2022-09-20T10:53:32.787Z,100592.97
2022-09-20T10:59:07.591Z,100586.06
2022-09-20T11:04:21.293Z,100590.50
2022-09-20T11:09:26.612Z,100583.56
2022-09-20T11:14:34.339Z,100592.31
2022-09-20T11:19:56.503Z,100594.06
2022-09-20T11:25:21.677Z,100591.19
2022-09-20T11:30:24.897Z,100595.72
2022-09-20T11:35:39.661Z,100591.56
2022-09-20T11:41:00.388Z,100596.25
2022-09-20T11:46:05.780Z,100597.78
2022-09-20T11:51:25.594Z,100584.44
2022-09-20T11:56:29.083Z,100585.16
2022-09-20T12:01:39.390Z,100582.25
2022-09-20T12:06:42.555Z,100581.06
2022-09-20T12:11:44.082Z,100577.06
2022-09-20T12:16:47.841Z,100579.09
2022-09-20T12:21:58.414Z,100575.94
2022-09-20T12:27:19.886Z,100571.22
2022-09-20T12:32:41.105Z,100572.41
2022-09-20T12:37:42.670Z,100570.69
2022-09-20T12:42:44.229Z,100573.06
2022-09-20T12:47:54.740Z,100571.53
2022-09-20T12:52:57.617Z,100570.16
2022-09-20T12:58:13.665Z,100571.00
2022-09-20T13:03:15.104Z,100568.16
2022-09-20T13:08:25.284Z,100568.34
2022-09-20T13:13:30.779Z,100579.66
2022-09-20T13:18:34.630Z,100573.72
2022-09-20T13:23:45.573Z,100581.13
2022-09-20T13:28:49.727Z,100568.50
2022-09-20T13:33:51.417Z,100581.81
2022-09-20T13:38:55.187Z,100582.63
2022-09-20T13:43:57.317Z,100577.56
2022-09-20T13:49:11.073Z,100585.16
2022-09-20T13:54:33.153Z,100588.69
2022-09-20T13:59:42.631Z,100600.19
2022-09-20T14:04:44.182Z,100622.44
2022-09-20T14:09:46.316Z,100631.78
2022-09-20T14:14:48.023Z,100630.28
2022-09-20T14:19:51.785Z,100642.59
2022-09-20T14:24:59.477Z,100634.34
2022-09-20T14:30:01.209Z,100646.72
2022-09-20T14:35:18.164Z,100641.09
2022-09-20T14:40:28.448Z,100639.47
2022-09-20T14:45:35.239Z,100630.94
2022-09-20T14:50:40.558Z,100632.75
2022-09-20T14:56:00.074Z,100634.66
2022-09-20T15:01:07.011Z,100624.13
2022-09-20T15:06:12.494Z,100623.59
2022-09-20T15:11:15.643Z,100630.75
2022-09-20T15:16:20.119Z,100630.53
2022-09-20T15:21:21.893Z,100630.69
2022-09-20T15:26:23.452Z,100634.63
2022-09-20T15:31:25.038Z,100641.19
2022-09-20T15:36:31.781Z,100651.19
2022-09-20T15:41:34.023Z,100646.91
2022-09-20T15:46:35.608Z,100653.16
2022-09-20T15:51:38.967Z,100661.31
2022-09-20T15:56:41.288Z,100665.00
2022-09-20T16:01:44.595Z,100657.94
2022-09-20T16:06:48.017Z,100666.84
2022-09-20T16:11:49.598Z,100665.81
2022-09-20T16:16:56.589Z,100670.34
2022-09-20T16:21:59.411Z,100676.22
2022-09-20T16:27:02.735Z,100675.13
2022-09-20T16:32:05.356Z,100674.53
2022-09-20T16:37:11.942Z,100685.44
2022-09-20T16:42:13.614Z,100695.53
2022-09-20T16:47:21.876Z,100699.13
2022-09-20T16:52:26.469Z,100703.09
2022-09-20T16:57:28.837Z,100703.81
2022-09-20T17:02:30.411Z,100708.88
2022-09-20T17:07:32.089Z,100750.47
2022-09-20T17:12:34.483Z,100775.44
2022-09-20T17:17:36.024Z,100780.97
2022-09-20T17:22:37.566Z,100789.34
2022-09-20T17:27:39.223Z,100773.19
2022-09-20T17:32:48.114Z,100765.50
2022-09-20T17:37:49.799Z,100762.63
2022-09-20T17:42:51.785Z,100760.81
2022-09-20T17:47:56.713Z,100758.63
2022-09-20T17:52:58.256Z,100761.25
2022-09-20T17:58:00.146Z,100774.44
2022-09-20T18:03:04.921Z,100785.75
2022-09-20T18:08:06.878Z,100779.00
2022-09-20T18:13:08.408Z,100788.56
2022-09-20T18:18:09.931Z,100795.75
2022-09-20T18:23:11.704Z,100797.91
2022-09-20T18:28:14.083Z,100809.94
2022-09-20T18:33:18.636Z,100806.09
2022-09-20T18:38:20.707Z,100820.28
2022-09-20T18:43:22.216Z,100819.78
2022-09-20T18:48:25.838Z,100826.25
2022-09-20T18:53:28.933Z,100835.28
2022-09-20T18:58:30.713Z,100834.47
2022-09-20T19:03:53.984Z,100839.03
2022-09-20T19:09:04.899Z,100844.84
2022-09-20T19:14:17.399Z,100840.66
2022-09-20T19:19:42.177Z,100843.13
2022-09-20T19:24:56.808Z,100852.34
2022-09-20T19:29:58.555Z,100861.91
2022-09-20T19:35:03.874Z,100859.78
2022-09-20T19:40:24.166Z,100866.84
2022-09-20T19:45:48.061Z,100871.53
2022-09-20T19:50:52.635Z,100875.06
2022-09-20T19:56:01.549Z,100887.88
2022-09-20T20:01:03.349Z,100882.25
2022-09-20T20:06:21.986Z,100886.78
2022-09-20T20:11:54.106Z,100882.22
2022-09-20T20:17:17.396Z,100891.69
2022-09-20T20:22:40.943Z,100903.97
2022-09-20T20:27:42.483Z,100906.81
2022-09-20T20:32:44.114Z,100903.72
2022-09-20T20:37:47.431Z,100914.03
2022-09-20T20:42:49.385Z,100917.25
2022-09-20T20:47:56.686Z,100919.94
2022-09-20T20:52:58.256Z,100930.25
2022-09-20T20:57:59.801Z,100930.53
2022-09-20T21:03:01.752Z,100921.22
2022-09-20T21:08:03.357Z,100922.66
2022-09-20T21:13:04.909Z,100942.13
2022-09-20T21:18:06.431Z,100931.94
2022-09-20T21:23:07.942Z,100933.66
2022-09-20T21:28:09.445Z,100936.19
2022-09-20T21:33:11.491Z,100945.81
2022-09-20T21:38:13.027Z,100944.34
2022-09-20T21:43:15.136Z,100944.94
2022-09-20T21:48:17.872Z,100952.00
2022-09-20T21:53:19.614Z,100955.38
2022-09-20T21:58:21.129Z,100958.75
2022-09-20T22:03:22.654Z,100968.25
2022-09-20T22:08:24.237Z,100970.50
2022-09-20T22:13:25.887Z,100977.28
2022-09-20T22:18:27.423Z,100977.66
2022-09-20T22:23:30.088Z,100973.72
2022-09-20T22:28:31.730Z,100970.91
2022-09-20T22:33:33.569Z,100975.84
2022-09-20T22:38:35.091Z,100975.28
2022-09-20T22:43:37.314Z,100966.81
2022-09-20T22:48:39.679Z,100976.25
2022-09-20T22:53:41.605Z,100981.75
2022-09-20T22:58:46.180Z,100978.84
2022-09-20T23:03:52.916Z,100975.13
2022-09-20T23:08:56.779Z,100974.59
2022-09-20T23:14:00.571Z,100973.75
2022-09-20T23:19:03.922Z,100979.63
2022-09-20T23:24:08.089Z,100975.41
2022-09-20T23:29:12.563Z,100980.78
2022-09-20T23:34:15.271Z,100979.50
2022-09-20T23:39:16.866Z,100985.41
2022-09-20T23:44:18.849Z,100989.97
2022-09-20T23:49:20.498Z,100989.53
2022-09-20T23:54:22.111Z,100984.56
2022-09-20T23:59:23.777Z,100989.38
